Time;durP1;ratioP1;P1;durP2;ratioP2;P2;SDS_P1;SDS_P2;PMS_P1;PMS_P2;Temp;Humidity;BMP_temperature;BMP_pressure;BME280_temperature;BME280_humidity;BME280_pressure;Samples;Min_cycle;Max_cycle;Signal;HPM_P1;HPM_P2
2024/04/13 00:01:53;;;;;;;;;;;24.60;39.20;;;;;;5420352;26;19936;-62
2024/04/13 00:04:23;;;;;;;;;;;24.50;39.20;;;;;;5420880;26;19933;-62
2024/04/13 00:06:50;;;;;;;;;;;24.50;39.20;;;;;;5420854;26;19937;-62
2024/04/13 00:09:18;;;;;;;;;;;24.50;39.20;;;;;;5420933;26;20291;-62
2024/04/13 00:11:45;;;;;;;;;;;24.50;39.20;;;;;;5420770;26;19957;-62
2024/04/13 00:14:12;;;;;;;;;;;24.50;39.20;;;;;;5420814;26;19940;-62
2024/04/13 00:16:39;;;;;;;;;;;24.50;39.20;;;;;;5420813;26;20278;-62
2024/04/13 00:19:07;;;;;;;;;;;24.50;39.20;;;;;;5420585;26;19997;-62
2024/04/13 00:21:33;;;;;;;;;;;24.50;39.20;;;;;;5420825;26;19936;-62
2024/04/13 00:24:01;;;;;;;;;;;24.50;39.20;;;;;;5420704;26;19961;-62
2024/04/13 00:26:28;;;;;;;;;;;24.50;39.10;;;;;;5420596;26;20293;-63
2024/04/13 00:28:55;;;;;;;;;;;24.50;39.20;;;;;;5420752;26;19998;-62
2024/04/13 00:31:22;;;;;;;;;;;24.50;39.20;;;;;;5420583;26;19929;-62
2024/04/13 00:33:49;;;;;;;;;;;24.50;39.20;;;;;;5420566;26;19932;-62
2024/04/13 00:36:16;;;;;;;;;;;24.50;39.20;;;;;;5420536;26;19936;-62
2024/04/13 00:38:43;;;;;;;;;;;24.50;39.20;;;;;;5420627;26;19957;-62
2024/04/13 00:41:12;;;;;;;;;;;24.50;39.20;;;;;;5420095;26;19929;-62
2024/04/13 00:43:39;;;;;;;;;;;24.50;39.20;;;;;;5420512;26;19929;-62
2024/04/13 00:46:16;;;;;;;;;;;24.50;39.20;;;;;;5420239;26;20299;-62
2024/04/13 00:48:43;;;;;;;;;;;24.50;39.20;;;;;;5420370;26;19957;-62
2024/04/13 00:51:12;;;;;;;;;;;24.50;39.20;;;;;;5420300;26;20001;-62
2024/04/13 00:53:40;;;;;;;;;;;24.50;39.20;;;;;;5420357;26;20389;-62
2024/04/13 00:56:08;;;;;;;;;;;24.50;39.20;;;;;;5423733;26;19997;-62
2024/04/13 00:58:36;;;;;;;;;;;24.50;39.30;;;;;;5456260;26;19928;-63
2024/04/13 01:01:03;;;;;;;;;;;24.50;39.30;;;;;;5455975;26;19932;-63
2024/04/13 01:03:30;;;;;;;;;;;24.50;39.30;;;;;;5456201;26;19928;-62
2024/04/13 01:05:58;;;;;;;;;;;24.50;39.30;;;;;;5456082;26;19939;-63
2024/04/13 01:08:27;;;;;;;;;;;24.50;39.30;;;;;;5455846;26;19932;-62
2024/04/13 01:10:57;;;;;;;;;;;24.40;39.30;;;;;;5455759;26;19936;-63
2024/04/13 01:13:26;;;;;;;;;;;24.40;39.90;;;;;;5454737;26;19939;-63
2024/04/13 01:15:53;;;;;;;;;;;24.40;39.40;;;;;;5455849;26;19940;-62
2024/04/13 01:18:20;;;;;;;;;;;24.40;39.40;;;;;;5456085;26;19928;-65
2024/04/13 01:20:48;;;;;;;;;;;24.40;39.40;;;;;;5455734;26;19961;-65
2024/04/13 01:23:14;;;;;;;;;;;24.40;39.50;;;;;;5455868;26;19953;-62
2024/04/13 01:25:42;;;;;;;;;;;24.40;39.50;;;;;;5454101;26;19957;-62
2024/04/13 01:28:10;;;;;;;;;;;24.40;39.50;;;;;;5455808;26;19935;-62
2024/04/13 01:30:38;;;;;;;;;;;24.40;39.50;;;;;;5455398;26;20365;-64
2024/04/13 01:33:05;;;;;;;;;;;24.40;39.50;;;;;;5455684;26;19935;-62
2024/04/13 01:35:33;;;;;;;;;;;24.40;39.40;;;;;;5455531;26;19957;-62
2024/04/13 01:37:59;;;;;;;;;;;24.40;39.40;;;;;;5455522;26;19943;-62
2024/04/13 01:40:26;;;;;;;;;;;24.40;39.40;;;;;;5455412;26;20270;-62
2024/04/13 01:42:53;;;;;;;;;;;24.40;39.40;;;;;;5453841;26;19928;-62
2024/04/13 01:45:20;;;;;;;;;;;24.40;39.40;;;;;;5455117;26;19997;-62
2024/04/13 01:47:48;;;;;;;;;;;24.40;39.40;;;;;;5455527;26;20327;-62
2024/04/13 01:50:15;;;;;;;;;;;24.40;39.40;;;;;;5455368;26;19997;-62
2024/04/13 01:52:42;;;;;;;;;;;24.40;39.40;;;;;;5455243;26;19929;-62
2024/04/13 01:55:09;;;;;;;;;;;24.30;39.30;;;;;;5455286;26;20440;-62
2024/04/13 01:57:37;;;;;;;;;;;24.40;39.40;;;;;;5455434;26;19928;-62
2024/04/13 02:00:05;;;;;;;;;;;24.30;39.30;;;;;;5455066;26;19935;-62
2024/04/13 02:02:32;;;;;;;;;;;24.30;39.30;;;;;;5455170;26;19948;-62
2024/04/13 02:04:59;;;;;;;;;;;24.30;39.30;;;;;;5455119;26;19932;-62
2024/04/13 02:07:29;;;;;;;;;;;24.30;39.30;;;;;;5455096;26;19978;-62
2024/04/13 02:09:56;;;;;;;;;;;24.30;39.40;;;;;;5455110;26;19937;-62
2024/04/13 02:12:23;;;;;;;;;;;24.30;39.40;;;;;;5455212;26;19928;-62
2024/04/13 02:14:50;;;;;;;;;;;24.30;39.40;;;;;;5454944;26;19961;-62
2024/04/13 02:17:17;;;;;;;;;;;24.30;39.40;;;;;;5455153;26;19936;-62
2024/04/13 02:19:45;;;;;;;;;;;24.30;39.40;;;;;;5454977;26;19929;-62
2024/04/13 02:22:12;;;;;;;;;;;24.30;39.50;;;;;;5455019;26;20377;-62
2024/04/13 02:24:39;;;;;;;;;;;24.30;39.50;;;;;;5454295;26;19942;-62
2024/04/13 02:27:07;;;;;;;;;;;24.30;39.50;;;;;;5454817;26;19936;-62
2024/04/13 02:29:34;;;;;;;;;;;24.30;39.50;;;;;;5453332;26;19937;-62
2024/04/13 02:32:00;;;;;;;;;;;24.30;39.50;;;;;;5454875;26;20393;-62
2024/04/13 02:34:27;;;;;;;;;;;24.30;39.60;;;;;;5454653;26;19929;-62
2024/04/13 02:36:54;;;;;;;;;;;24.20;39.50;;;;;;5454774;26;19928;-62
2024/04/13 02:39:21;;;;;;;;;;;24.20;39.60;;;;;;5452984;26;19928;-62
2024/04/13 02:41:48;;;;;;;;;;;24.30;40.20;;;;;;5454682;26;19961;-63
2024/04/13 02:44:15;;;;;;;;;;;24.20;39.60;;;;;;5454751;26;19932;-63
2024/04/13 02:46:42;;;;;;;;;;;24.30;39.60;;;;;;5454338;26;19928;-62
2024/04/13 02:49:10;;;;;;;;;;;24.30;39.50;;;;;;5454525;26;20532;-62
2024/04/13 02:51:37;;;;;;;;;;;24.30;39.50;;;;;;5454750;26;19928;-62
2024/04/13 02:54:04;;;;;;;;;;;24.30;39.50;;;;;;5452910;26;19997;-62
2024/04/13 02:56:33;;;;;;;;;;;24.30;39.50;;;;;;5452731;26;20001;-62
2024/04/13 02:59:00;;;;;;;;;;;24.30;39.40;;;;;;5454538;26;19943;-63
2024/04/13 03:01:28;;;;;;;;;;;24.30;39.50;;;;;;5454403;26;19939;-62
2024/04/13 03:03:54;;;;;;;;;;;24.30;39.40;;;;;;5454277;26;19929;-63
2024/04/13 03:06:22;;;;;;;;;;;24.30;39.40;;;;;;5454418;26;19932;-62
2024/04/13 03:08:50;;;;;;;;;;;24.30;39.40;;;;;;5454380;26;19928;-62
2024/04/13 03:11:18;;;;;;;;;;;24.30;39.40;;;;;;5454061;26;19936;-62
2024/04/13 03:13:45;;;;;;;;;;;24.30;39.40;;;;;;5454342;26;19997;-62
2024/04/13 03:16:13;;;;;;;;;;;24.30;39.40;;;;;;5454250;26;19936;-62
2024/04/13 03:18:44;;;;;;;;;;;24.30;39.40;;;;;;5454069;26;19939;-62
2024/04/13 03:21:12;;;;;;;;;;;24.30;39.40;;;;;;5454014;26;19936;-62
2024/04/13 03:23:39;;;;;;;;;;;24.30;39.40;;;;;;5454091;26;19928;-62
2024/04/13 03:26:07;;;;;;;;;;;24.30;39.40;;;;;;5453951;26;19935;-62
2024/04/13 03:28:34;;;;;;;;;;;24.20;39.40;;;;;;5454010;26;19937;-62
2024/04/13 03:31:02;;;;;;;;;;;24.20;39.40;;;;;;5453698;26;19932;-62
2024/04/13 03:33:29;;;;;;;;;;;24.20;39.40;;;;;;5452298;26;20381;-62
2024/04/13 03:36:01;;;;;;;;;;;24.20;39.40;;;;;;5452234;26;19952;-63
2024/04/13 03:38:28;;;;;;;;;;;24.20;39.50;;;;;;5453793;26;19928;-62
2024/04/13 03:40:59;;;;;;;;;;;24.20;39.50;;;;;;5453688;26;19936;-62
2024/04/13 03:43:26;;;;;;;;;;;24.20;39.50;;;;;;5453875;26;19929;-62
2024/04/13 03:45:54;;;;;;;;;;;24.20;39.60;;;;;;5453429;26;19928;-62
2024/04/13 03:48:21;;;;;;;;;;;24.10;39.50;;;;;;5453829;26;20273;-62
2024/04/13 03:50:48;;;;;;;;;;;24.20;39.60;;;;;;5451779;26;19933;-62
2024/04/13 03:53:15;;;;;;;;;;;24.10;39.60;;;;;;5453549;26;19940;-62
2024/04/13 03:55:42;;;;;;;;;;;24.10;39.60;;;;;;5453453;26;19997;-62
2024/04/13 03:58:10;;;;;;;;;;;24.10;40.10;;;;;;5453685;26;19955;-62
2024/04/13 04:00:37;;;;;;;;;;;24.10;39.60;;;;;;5453168;26;19936;-62
2024/04/13 04:03:04;;;;;;;;;;;24.10;39.60;;;;;;5453457;26;19929;-63
2024/04/13 04:05:31;;;;;;;;;;;24.20;39.60;;;;;;5453359;26;19928;-62
2024/04/13 04:07:58;;;;;;;;;;;24.20;39.50;;;;;;5453189;26;19933;-62
2024/04/13 04:10:26;;;;;;;;;;;24.20;39.50;;;;;;5453280;26;19928;-62
2024/04/13 04:12:53;;;;;;;;;;;24.20;39.40;;;;;;5451486;26;19928;-62
2024/04/13 04:15:20;;;;;;;;;;;24.20;39.40;;;;;;5453111;26;19928;-62
2024/04/13 04:17:46;;;;;;;;;;;24.20;39.40;;;;;;5453035;26;20378;-62
2024/04/13 04:20:14;;;;;;;;;;;24.20;39.40;;;;;;5446627;26;19939;-62
2024/04/13 04:22:41;;;;;;;;;;;24.20;39.40;;;;;;5453040;26;19929;-62
2024/04/13 04:25:08;;;;;;;;;;;24.20;39.40;;;;;;5452955;26;20374;-62
2024/04/13 04:27:35;;;;;;;;;;;24.20;39.40;;;;;;5451436;26;19940;-62
2024/04/13 04:30:02;;;;;;;;;;;24.20;39.30;;;;;;5452580;26;19928;-63
2024/04/13 04:32:29;;;;;;;;;;;24.20;39.30;;;;;;5450675;26;19936;-62
2024/04/13 04:34:56;;;;;;;;;;;24.20;39.30;;;;;;5441623;26;19928;-62
2024/04/13 04:37:23;;;;;;;;;;;24.20;39.30;;;;;;5452848;26;19935;-62
2024/04/13 04:39:50;;;;;;;;;;;24.30;39.20;;;;;;5452668;26;19997;-62
2024/04/13 04:42:17;;;;;;;;;;;24.30;39.00;;;;;;5452712;26;19930;-62
2024/04/13 04:44:44;;;;;;;;;;;24.30;38.80;;;;;;5452546;26;19936;-62
2024/04/13 04:47:11;;;;;;;;;;;24.30;38.60;;;;;;5454406;26;19936;-62
2024/04/13 04:49:38;;;;;;;;;;;24.30;38.50;;;;;;5456220;26;19936;-62
2024/04/13 04:52:06;;;;;;;;;;;24.40;38.40;;;;;;5454735;26;19953;-62
2024/04/13 04:54:33;;;;;;;;;;;24.40;38.20;;;;;;5456168;26;19965;-62
2024/04/13 04:57:01;;;;;;;;;;;24.40;38.80;;;;;;5456134;26;20374;-62
2024/04/13 04:59:28;;;;;;;;;;;24.40;38.20;;;;;;5456108;26;19936;-62
2024/04/13 05:01:56;;;;;;;;;;;24.40;38.20;;;;;;5456236;26;19928;-62
2024/04/13 05:04:26;;;;;;;;;;;24.40;38.20;;;;;;5456108;26;19937;-62
2024/04/13 05:06:54;;;;;;;;;;;24.40;38.20;;;;;;5456066;26;19960;-62
2024/04/13 05:09:21;;;;;;;;;;;24.40;38.20;;;;;;5456018;26;19932;-62
2024/04/13 05:11:48;;;;;;;;;;;24.40;38.20;;;;;;5455907;26;19939;-62
2024/04/13 05:14:17;;;;;;;;;;;24.40;38.10;;;;;;5456026;26;19932;-62
2024/04/13 05:16:44;;;;;;;;;;;24.40;38.10;;;;;;5455905;26;19928;-62
2024/04/13 05:19:11;;;;;;;;;;;24.40;38.00;;;;;;5455655;26;20329;-62
2024/04/13 05:21:39;;;;;;;;;;;24.40;38.00;;;;;;5455911;26;19932;-62
2024/04/13 05:24:06;;;;;;;;;;;24.40;37.90;;;;;;5455783;26;19941;-62
2024/04/13 05:26:33;;;;;;;;;;;24.50;37.90;;;;;;5455581;26;19928;-62
2024/04/13 05:29:03;;;;;;;;;;;24.50;37.80;;;;;;5455850;26;20027;-62
2024/04/13 05:31:30;;;;;;;;;;;24.50;37.70;;;;;;5455748;26;19928;-62
2024/04/13 05:33:57;;;;;;;;;;;24.50;37.70;;;;;;5455552;26;19933;-62
2024/04/13 05:36:24;;;;;;;;;;;24.50;37.60;;;;;;5455706;26;19960;-62
2024/04/13 05:38:51;;;;;;;;;;;24.50;37.60;;;;;;5455683;26;19941;-62
2024/04/13 05:41:18;;;;;;;;;;;24.50;37.50;;;;;;5455406;26;19933;-63
2024/04/13 05:43:45;;;;;;;;;;;24.60;37.50;;;;;;5455645;26;19933;-62
2024/04/13 05:46:12;;;;;;;;;;;24.60;37.50;;;;;;5455305;26;19928;-62
2024/04/13 05:48:39;;;;;;;;;;;24.60;37.40;;;;;;5455253;26;19939;-62
2024/04/13 05:51:09;;;;;;;;;;;24.70;37.40;;;;;;5453631;26;20001;-62
2024/04/13 05:53:36;;;;;;;;;;;24.70;37.40;;;;;;5454461;26;20377;-62
2024/04/13 05:56:08;;;;;;;;;;;24.70;37.40;;;;;;5448696;26;20374;-62
2024/04/13 05:58:36;;;;;;;;;;;24.70;37.30;;;;;;5451763;26;19936;-62
2024/04/13 06:01:03;;;;;;;;;;;24.70;37.30;;;;;;5453311;26;20378;-62
2024/04/13 06:03:30;;;;;;;;;;;24.70;37.30;;;;;;5455458;26;19960;-63
2024/04/13 06:05:57;;;;;;;;;;;24.80;37.30;;;;;;5453622;26;19996;-62
2024/04/13 06:08:24;;;;;;;;;;;24.80;37.30;;;;;;5454803;26;19929;-62
2024/04/13 06:10:52;;;;;;;;;;;24.80;37.30;;;;;;5454317;26;19928;-62
2024/04/13 06:13:19;;;;;;;;;;;24.80;37.30;;;;;;5455357;26;19929;-62
2024/04/13 06:15:46;;;;;;;;;;;24.80;37.30;;;;;;5455024;26;19928;-62
2024/04/13 06:18:13;;;;;;;;;;;24.90;37.30;;;;;;5455185;26;20374;-62
2024/04/13 06:20:40;;;;;;;;;;;24.90;37.30;;;;;;5454827;26;20266;-62
2024/04/13 06:23:07;;;;;;;;;;;24.90;37.30;;;;;;5453135;26;20266;-62
2024/04/13 06:25:34;;;;;;;;;;;25.00;37.30;;;;;;5455006;26;19929;-62
2024/04/13 06:28:01;;;;;;;;;;;25.00;37.20;;;;;;5454962;26;20020;-61
2024/04/13 06:30:28;;;;;;;;;;;25.10;37.50;;;;;;5454503;26;19929;-60
2024/04/13 06:32:55;;;;;;;;;;;25.10;37.30;;;;;;5454539;26;19936;-62
2024/04/13 06:35:22;;;;;;;;;;;25.10;37.40;;;;;;5454848;26;19936;-61
2024/04/13 06:37:49;;;;;;;;;;;25.20;37.50;;;;;;5454824;26;20258;-60
2024/04/13 06:40:16;;;;;;;;;;;25.20;37.50;;;;;;5454738;26;19929;-60
2024/04/13 06:42:43;;;;;;;;;;;25.20;37.40;;;;;;5454704;26;19936;-60
2024/04/13 06:45:10;;;;;;;;;;;25.30;37.50;;;;;;5454492;26;19997;-60
2024/04/13 06:47:37;;;;;;;;;;;25.30;37.50;;;;;;5454454;26;19997;-60
2024/04/13 06:50:04;;;;;;;;;;;25.40;37.60;;;;;;5454475;26;20269;-60
2024/04/13 06:52:31;;;;;;;;;;;25.40;37.60;;;;;;5451688;26;20029;-60
2024/04/13 06:54:58;;;;;;;;;;;25.40;38.10;;;;;;5454342;26;19928;-60
2024/04/13 06:57:26;;;;;;;;;;;25.40;37.60;;;;;;5454287;26;19928;-60
2024/04/13 06:59:53;;;;;;;;;;;25.40;37.60;;;;;;5453381;26;19935;-60
2024/04/13 07:02:25;;;;;;;;;;;25.40;37.60;;;;;;5454461;26;20004;-60
2024/04/13 07:04:52;;;;;;;;;;;25.40;37.60;;;;;;5454094;26;19939;-60
2024/04/13 07:07:19;;;;;;;;;;;25.50;37.60;;;;;;5454347;26;20381;-60
2024/04/13 07:09:46;;;;;;;;;;;25.50;37.60;;;;;;5454160;26;20308;-61
2024/04/13 07:12:14;;;;;;;;;;;25.50;37.50;;;;;;5453953;26;19940;-60
2024/04/13 07:14:41;;;;;;;;;;;25.50;37.50;;;;;;5453954;26;20340;-60
2024/04/13 07:17:08;;;;;;;;;;;25.50;37.50;;;;;;5452523;26;19974;-60
2024/04/13 07:19:35;;;;;;;;;;;25.60;37.60;;;;;;5453966;26;19928;-60
2024/04/13 07:22:02;;;;;;;;;;;25.60;37.50;;;;;;5454112;26;19930;-60
2024/04/13 07:24:29;;;;;;;;;;;25.60;37.40;;;;;;5454082;26;19935;-60
2024/04/13 07:26:56;;;;;;;;;;;25.60;37.40;;;;;;5452192;26;19965;-60
2024/04/13 07:29:23;;;;;;;;;;;25.70;37.40;;;;;;5452954;26;19935;-60
2024/04/13 07:31:50;;;;;;;;;;;25.70;37.40;;;;;;5454104;26;19929;-60
2024/04/13 07:34:18;;;;;;;;;;;25.70;37.40;;;;;;5453676;26;19929;-60
2024/04/13 07:36:46;;;;;;;;;;;25.70;37.40;;;;;;5454009;26;19929;-60
2024/04/13 07:39:13;;;;;;;;;;;25.80;37.40;;;;;;5453637;26;20351;-60
2024/04/13 07:41:40;;;;;;;;;;;25.80;37.40;;;;;;5453480;26;19976;-60
2024/04/13 07:44:07;;;;;;;;;;;25.80;37.40;;;;;;5453281;26;19997;-60
2024/04/13 07:46:34;;;;;;;;;;;25.80;37.30;;;;;;5453268;26;19936;-60
2024/04/13 07:49:01;;;;;;;;;;;25.90;37.40;;;;;;5453246;26;19929;-60
2024/04/13 07:51:28;;;;;;;;;;;25.90;37.30;;;;;;5453306;26;20334;-60
2024/04/13 07:53:55;;;;;;;;;;;25.90;37.30;;;;;;5453392;26;19960;-60
2024/04/13 07:56:22;;;;;;;;;;;25.90;37.20;;;;;;5453579;26;19936;-60
2024/04/13 07:58:49;;;;;;;;;;;26.00;37.30;;;;;;5453450;26;19929;-60
2024/04/13 08:01:16;;;;;;;;;;;26.00;37.30;;;;;;5452981;26;19935;-60
2024/04/13 08:03:44;;;;;;;;;;;26.00;37.80;;;;;;5453496;26;19928;-60
2024/04/13 08:06:11;;;;;;;;;;;26.00;37.20;;;;;;5453400;26;19996;-60
2024/04/13 08:08:38;;;;;;;;;;;26.00;37.20;;;;;;5453087;26;19937;-60
2024/04/13 08:11:08;;;;;;;;;;;26.00;37.20;;;;;;5452791;26;19929;-60
2024/04/13 08:13:35;;;;;;;;;;;26.00;37.10;;;;;;5453296;26;19997;-60
2024/04/13 08:16:03;;;;;;;;;;;26.00;37.10;;;;;;5453117;26;20262;-60
2024/04/13 08:18:30;;;;;;;;;;;26.10;37.10;;;;;;5453116;26;19933;-60
2024/04/13 08:20:57;;;;;;;;;;;26.10;37.10;;;;;;5452995;26;19935;-60
2024/04/13 08:23:24;;;;;;;;;;;26.10;37.00;;;;;;5456779;26;19943;-60
2024/04/13 08:25:51;;;;;;;;;;;26.10;37.50;;;;;;5454923;26;19929;-60
2024/04/13 08:28:18;;;;;;;;;;;26.10;36.90;;;;;;5454938;26;20278;-60
2024/04/13 08:30:45;;;;;;;;;;;26.10;36.90;;;;;;5454627;26;20396;-60
2024/04/13 08:33:12;;;;;;;;;;;26.10;36.80;;;;;;5456567;26;19936;-60
2024/04/13 08:35:41;;;;;;;;;;;26.10;36.70;;;;;;5456524;26;19936;-60
2024/04/13 08:38:08;;;;;;;;;;;26.10;36.70;;;;;;5454828;26;19939;-60
2024/04/13 08:40:40;;;;;;;;;;;26.10;36.70;;;;;;5456340;26;19936;-60
2024/04/13 08:43:07;;;;;;;;;;;26.10;36.70;;;;;;5456481;26;19929;-60
2024/04/13 08:45:35;;;;;;;;;;;26.20;36.80;;;;;;5456290;26;19932;-60
2024/04/13 08:48:02;;;;;;;;;;;26.10;36.70;;;;;;5456134;26;20305;-60
2024/04/13 08:50:30;;;;;;;;;;;26.20;36.80;;;;;;5456162;26;19935;-60
2024/04/13 08:52:57;;;;;;;;;;;26.20;36.80;;;;;;5456165;26;19996;-60
2024/04/13 08:55:24;;;;;;;;;;;26.20;36.90;;;;;;5456294;26;19936;-60
2024/04/13 08:57:52;;;;;;;;;;;26.20;36.90;;;;;;5456246;26;19934;-60
2024/04/13 09:00:22;;;;;;;;;;;26.20;36.90;;;;;;5455928;26;19933;-60
2024/04/13 09:02:52;;;;;;;;;;;26.20;36.90;;;;;;5456230;26;19939;-61
2024/04/13 09:05:19;;;;;;;;;;;26.30;37.00;;;;;;5456288;26;19932;-61
2024/04/13 09:07:46;;;;;;;;;;;26.20;36.90;;;;;;5455848;26;19928;-62
2024/04/13 09:10:14;;;;;;;;;;;26.30;37.00;;;;;;5456046;26;19928;-60
2024/04/13 09:12:41;;;;;;;;;;;26.30;36.90;;;;;;5456063;26;20002;-60
2024/04/13 09:15:08;;;;;;;;;;;26.30;36.90;;;;;;5455796;26;19928;-60
2024/04/13 09:17:35;;;;;;;;;;;26.30;36.90;;;;;;5454335;26;19940;-63
2024/04/13 09:20:07;;;;;;;;;;;26.30;36.90;;;;;;5456032;26;19928;-60
2024/04/13 09:22:35;;;;;;;;;;;26.30;36.90;;;;;;5455837;26;19952;-60
2024/04/13 09:25:03;;;;;;;;;;;26.30;36.90;;;;;;5455680;26;19936;-61
2024/04/13 09:27:31;;;;;;;;;;;26.40;36.90;;;;;;5455660;26;19929;-60
2024/04/13 09:30:08;;;;;;;;;;;26.40;36.90;;;;;;5455575;26;19928;-60
2024/04/13 09:32:36;;;;;;;;;;;26.40;36.90;;;;;;5454869;26;20005;-60
2024/04/13 09:35:10;;;;;;;;;;;26.40;36.90;;;;;;5455095;26;19936;-60
2024/04/13 09:37:38;;;;;;;;;;;26.40;36.90;;;;;;5455779;26;19940;-60
2024/04/13 09:40:06;;;;;;;;;;;26.40;36.90;;;;;;5455543;26;20270;-60
2024/04/13 09:42:33;;;;;;;;;;;26.40;36.90;;;;;;5455447;26;19978;-59
2024/04/13 09:45:04;;;;;;;;;;;26.40;36.90;;;;;;5455567;26;19929;-60
2024/04/13 09:47:32;;;;;;;;;;;26.40;36.90;;;;;;5453677;26;19928;-60
2024/04/13 09:49:59;;;;;;;;;;;26.50;36.90;;;;;;5455253;26;19928;-61
2024/04/13 09:52:27;;;;;;;;;;;26.50;36.90;;;;;;5455450;26;19929;-60
2024/04/13 09:54:55;;;;;;;;;;;26.50;36.90;;;;;;5455382;26;19928;-60
2024/04/13 09:57:24;;;;;;;;;;;26.50;36.90;;;;;;5455350;26;20402;-60
2024/04/13 09:59:52;;;;;;;;;;;26.50;36.90;;;;;;5455282;26;19936;-60
2024/04/13 10:02:20;;;;;;;;;;;26.50;36.80;;;;;;5455387;26;20374;-60
2024/04/13 10:04:47;;;;;;;;;;;26.50;36.80;;;;;;5455063;26;19957;-60
2024/04/13 10:07:15;;;;;;;;;;;26.50;36.80;;;;;;5455266;26;19936;-60
2024/04/13 10:09:45;;;;;;;;;;;26.60;36.80;;;;;;5455157;26;19928;-60
2024/04/13 10:12:16;;;;;;;;;;;26.60;36.80;;;;;;5455147;26;19928;-60
2024/04/13 10:14:45;;;;;;;;;;;26.60;36.80;;;;;;5455118;26;19929;-60
2024/04/13 10:17:13;;;;;;;;;;;26.60;36.70;;;;;;5455137;26;20000;-60
2024/04/13 10:19:45;;;;;;;;;;;26.60;36.70;;;;;;5455127;26;19928;-60
2024/04/13 10:22:12;;;;;;;;;;;26.60;36.60;;;;;;5455173;26;19940;-60
2024/04/13 10:25:01;;;;;;;;;;;26.70;36.60;;;;;;5454816;26;19960;-60
2024/04/13 10:27:31;;;;;;;;;;;26.70;36.60;;;;;;5454917;26;19928;-60
2024/04/13 10:29:59;;;;;;;;;;;26.70;36.50;;;;;;5454858;26;19940;-60
2024/04/13 10:32:26;;;;;;;;;;;26.70;36.40;;;;;;5454908;26;19928;-60
2024/04/13 10:34:58;;;;;;;;;;;26.70;36.40;;;;;;5454859;26;20324;-60
2024/04/13 10:37:26;;;;;;;;;;;26.80;36.40;;;;;;5454876;26;19932;-60
2024/04/13 10:39:57;;;;;;;;;;;26.80;36.40;;;;;;5452751;26;19928;-60
2024/04/13 10:42:35;;;;;;;;;;;26.80;36.30;;;;;;5454900;26;19929;-60
2024/04/13 10:45:19;;;;;;;;;;;26.80;36.30;;;;;;5454230;26;19936;-60
2024/04/13 10:47:47;;;;;;;;;;;26.80;36.40;;;;;;5454282;26;19940;-60
2024/04/13 10:50:15;;;;;;;;;;;26.80;36.30;;;;;;5454628;26;19943;-60
2024/04/13 10:52:43;;;;;;;;;;;26.80;36.20;;;;;;5454681;26;20385;-60
2024/04/13 10:55:11;;;;;;;;;;;26.90;36.20;;;;;;5454330;26;19936;-61
2024/04/13 10:57:39;;;;;;;;;;;26.80;36.10;;;;;;5454582;26;19940;-60
2024/04/13 11:00:08;;;;;;;;;;;26.90;36.10;;;;;;5454324;26;20381;-60
2024/04/13 11:02:37;;;;;;;;;;;26.90;36.70;;;;;;5454229;26;19929;-60
2024/04/13 11:05:05;;;;;;;;;;;26.90;36.10;;;;;;5454418;26;20413;-60
2024/04/13 11:07:33;;;;;;;;;;;26.90;36.10;;;;;;5452561;26;19928;-60
2024/04/13 11:10:01;;;;;;;;;;;26.90;36.00;;;;;;5452573;26;19929;-60
2024/04/13 11:12:29;;;;;;;;;;;26.90;35.90;;;;;;5454387;26;20369;-59
2024/04/13 11:14:56;;;;;;;;;;;26.90;35.90;;;;;;5454110;26;19935;-60
2024/04/13 11:17:23;;;;;;;;;;;26.90;36.00;;;;;;5454405;26;19929;-60
2024/04/13 11:19:50;;;;;;;;;;;27.00;36.00;;;;;;5454272;26;19936;-60
2024/04/13 11:22:17;;;;;;;;;;;26.90;35.90;;;;;;5454408;26;20322;-60
2024/04/13 11:24:44;;;;;;;;;;;27.00;35.90;;;;;;5454061;26;19929;-60
2024/04/13 11:27:12;;;;;;;;;;;27.00;35.90;;;;;;5454056;26;19935;-60
2024/04/13 11:29:40;;;;;;;;;;;27.00;35.90;;;;;;5453826;26;19997;-60
2024/04/13 11:32:07;;;;;;;;;;;27.00;35.90;;;;;;5454031;26;19932;-60
2024/04/13 11:34:35;;;;;;;;;;;27.00;35.80;;;;;;5452798;26;19954;-60
2024/04/13 11:37:05;;;;;;;;;;;27.00;35.80;;;;;;5453813;26;19928;-60
2024/04/13 11:39:35;;;;;;;;;;;27.10;35.80;;;;;;5453660;26;19928;-60
2024/04/13 11:42:06;;;;;;;;;;;27.10;35.70;;;;;;5444460;26;20471;-60
2024/04/13 11:44:36;;;;;;;;;;;27.10;36.20;;;;;;5447471;26;19933;-60
2024/04/13 11:47:03;;;;;;;;;;;27.10;35.60;;;;;;5453352;26;19929;-60
2024/04/13 11:49:30;;;;;;;;;;;27.10;35.60;;;;;;5453552;26;19928;-60
2024/04/13 11:52:01;;;;;;;;;;;27.10;35.50;;;;;;5453721;26;19936;-60
2024/04/13 11:54:28;;;;;;;;;;;27.10;35.50;;;;;;5453588;26;19935;-60
2024/04/13 11:56:56;;;;;;;;;;;27.20;35.60;;;;;;5452315;26;19939;-60
2024/04/13 11:59:23;;;;;;;;;;;27.10;35.50;;;;;;5453472;26;20265;-60
2024/04/13 12:01:51;;;;;;;;;;;27.20;35.50;;;;;;5453209;26;20377;-60
2024/04/13 12:04:18;;;;;;;;;;;27.20;35.50;;;;;;5453376;26;19932;-60
2024/04/13 12:06:47;;;;;;;;;;;27.20;35.50;;;;;;5453362;26;20311;-60
2024/04/13 12:09:14;;;;;;;;;;;27.20;35.50;;;;;;5453135;26;19997;-60
2024/04/13 12:11:41;;;;;;;;;;;27.20;35.50;;;;;;5453252;26;19935;-60
2024/04/13 12:14:08;;;;;;;;;;;27.20;35.40;;;;;;5453304;26;19928;-60
2024/04/13 12:16:35;;;;;;;;;;;27.20;35.40;;;;;;5453169;26;20262;-60
2024/04/13 12:19:03;;;;;;;;;;;27.20;35.40;;;;;;5452972;26;19997;-60
2024/04/13 12:21:31;;;;;;;;;;;27.20;35.40;;;;;;5451625;26;19928;-60
2024/04/13 12:23:59;;;;;;;;;;;27.20;35.40;;;;;;5453060;26;19928;-60
2024/04/13 12:26:27;;;;;;;;;;;27.20;35.40;;;;;;5453087;26;20374;-60
2024/04/13 12:28:54;;;;;;;;;;;27.30;35.50;;;;;;5451237;26;19955;-60
2024/04/13 12:31:21;;;;;;;;;;;27.20;35.40;;;;;;5453001;26;19936;-60
2024/04/13 12:33:48;;;;;;;;;;;27.30;35.40;;;;;;5452867;26;19929;-60
2024/04/13 12:36:15;;;;;;;;;;;27.20;35.30;;;;;;5452845;26;19928;-59
2024/04/13 12:38:43;;;;;;;;;;;27.30;35.40;;;;;;5452845;26;20370;-59
2024/04/13 12:41:13;;;;;;;;;;;27.30;35.30;;;;;;5452380;26;19929;-59
2024/04/13 12:43:40;;;;;;;;;;;27.30;35.30;;;;;;5452720;26;19928;-60
2024/04/13 12:46:07;;;;;;;;;;;27.30;35.30;;;;;;5452717;26;19935;-60
2024/04/13 12:48:34;;;;;;;;;;;27.30;35.20;;;;;;5452140;26;19929;-59
2024/04/13 12:51:01;;;;;;;;;;;27.30;35.20;;;;;;5452071;26;19961;-60
2024/04/13 12:53:28;;;;;;;;;;;27.30;35.10;;;;;;5450910;26;19978;-60
2024/04/13 12:55:56;;;;;;;;;;;27.40;35.20;;;;;;5452528;26;20366;-60
2024/04/13 12:58:23;;;;;;;;;;;27.40;35.10;;;;;;5452572;26;19935;-60
2024/04/13 13:00:49;;;;;;;;;;;27.40;35.10;;;;;;5452349;26;19929;-60
2024/04/13 13:03:16;;;;;;;;;;;27.40;35.10;;;;;;5452309;26;19928;-60
2024/04/13 13:05:44;;;;;;;;;;;27.40;35.00;;;;;;5452345;26;19936;-60
2024/04/13 13:08:12;;;;;;;;;;;27.40;35.00;;;;;;5454308;26;19935;-60
2024/04/13 13:10:39;;;;;;;;;;;27.40;34.90;;;;;;5454116;26;19997;-60
2024/04/13 13:13:06;;;;;;;;;;;27.40;34.90;;;;;;5456192;26;19940;-59
2024/04/13 13:15:33;;;;;;;;;;;27.40;34.90;;;;;;5456005;26;19935;-60
2024/04/13 13:18:00;;;;;;;;;;;27.40;34.90;;;;;;5456013;26;19940;-59
2024/04/13 13:20:27;;;;;;;;;;;27.40;34.90;;;;;;5456114;26;19933;-60
2024/04/13 13:22:54;;;;;;;;;;;27.40;34.80;;;;;;5454078;26;19936;-60
2024/04/13 13:25:21;;;;;;;;;;;27.40;34.80;;;;;;5448184;26;19928;-60
2024/04/13 13:27:48;;;;;;;;;;;27.40;34.80;;;;;;5455684;26;19932;-60
2024/04/13 13:30:16;;;;;;;;;;;27.40;34.80;;;;;;5447363;26;19928;-60
2024/04/13 13:32:44;;;;;;;;;;;27.50;34.90;;;;;;5453701;26;19936;-60
2024/04/13 13:35:11;;;;;;;;;;;27.40;34.80;;;;;;5455638;26;19939;-59
2024/04/13 13:37:39;;;;;;;;;;;27.40;34.70;;;;;;5455610;26;19932;-60
2024/04/13 13:40:06;;;;;;;;;;;27.40;34.60;;;;;;5455530;26;19928;-60
2024/04/13 13:42:33;;;;;;;;;;;27.50;34.70;;;;;;5455562;26;19936;-59
2024/04/13 13:45:00;;;;;;;;;;;27.40;34.70;;;;;;5455385;26;19936;-60
2024/04/13 13:47:27;;;;;;;;;;;27.40;34.60;;;;;;5455080;26;19928;-60
2024/04/13 13:49:54;;;;;;;;;;;27.50;34.70;;;;;;5455214;26;19929;-59
2024/04/13 13:52:21;;;;;;;;;;;27.50;34.60;;;;;;5455365;26;20373;-60
2024/04/13 13:54:48;;;;;;;;;;;27.50;34.60;;;;;;5455256;26;20325;-60
2024/04/13 13:57:16;;;;;;;;;;;27.50;34.60;;;;;;5455419;26;19937;-60
2024/04/13 13:59:43;;;;;;;;;;;27.50;34.50;;;;;;5453516;26;19928;-60
2024/04/13 14:02:10;;;;;;;;;;;27.50;34.50;;;;;;5455410;26;19928;-60
2024/04/13 14:04:37;;;;;;;;;;;27.50;34.50;;;;;;5455143;26;20057;-60
2024/04/13 14:07:04;;;;;;;;;;;27.50;34.60;;;;;;5454149;26;19935;-60
2024/04/13 14:09:32;;;;;;;;;;;27.50;34.40;;;;;;5454498;26;20277;-60
2024/04/13 14:11:59;;;;;;;;;;;27.50;34.40;;;;;;5455272;26;19929;-59
2024/04/13 14:14:26;;;;;;;;;;;27.50;34.40;;;;;;5455017;26;19937;-60
2024/04/13 14:16:53;;;;;;;;;;;27.50;34.40;;;;;;5455098;26;19964;-60
2024/04/13 14:19:20;;;;;;;;;;;27.50;34.40;;;;;;5454258;26;19960;-60